sensor_id;sensor_type;location;lat;lon;timestamp;P1;durP1;ratioP1;P2;durP2;ratioP2
27187;SDS011;14708;50.872;5.306;2023-06-14T00:01:41;4.25;;;3.22;;
27187;SDS011;14708;50.872;5.306;2023-06-14T00:04:10;4.68;;;3.10;;
27187;SDS011;14708;50.872;5.306;2023-06-14T00:06:37;3.53;;;2.83;;
27187;SDS011;14708;50.872;5.306;2023-06-14T00:09:03;3.63;;;2.92;;
27187;SDS011;14708;50.872;5.306;2023-06-14T00:11:30;3.55;;;2.67;;
27187;SDS011;14708;50.872;5.306;2023-06-14T00:13:56;3.63;;;3.10;;
27187;SDS011;14708;50.872;5.306;2023-06-14T00:16:22;3.30;;;3.00;;
27187;SDS011;14708;50.872;5.306;2023-06-14T00:18:48;3.10;;;2.58;;
27187;SDS011;14708;50.872;5.306;2023-06-14T00:21:13;4.10;;;3.22;;
27187;SDS011;14708;50.872;5.306;2023-06-14T00:23:39;3.72;;;3.28;;
27187;SDS011;14708;50.872;5.306;2023-06-14T00:26:05;3.20;;;2.53;;
27187;SDS011;14708;50.872;5.306;2023-06-14T00:28:30;3.70;;;2.70;;
27187;SDS011;14708;50.872;5.306;2023-06-14T00:30:56;5.00;;;3.10;;
27187;SDS011;14708;50.872;5.306;2023-06-14T00:33:22;3.42;;;3.00;;
27187;SDS011;14708;50.872;5.306;2023-06-14T00:35:47;2.92;;;2.53;;
27187;SDS011;14708;50.872;5.306;2023-06-14T00:38:13;4.00;;;2.92;;
27187;SDS011;14708;50.872;5.306;2023-06-14T00:40:38;3.60;;;2.60;;
27187;SDS011;14708;50.872;5.306;2023-06-14T00:43:04;4.60;;;2.92;;
27187;SDS011;14708;50.872;5.306;2023-06-14T00:45:30;3.03;;;2.80;;
27187;SDS011;14708;50.872;5.306;2023-06-14T00:48:00;4.70;;;2.78;;
27187;SDS011;14708;50.872;5.306;2023-06-14T00:50:27;3.47;;;2.38;;
27187;SDS011;14708;50.872;5.306;2023-06-14T00:52:55;3.65;;;2.63;;
27187;SDS011;14708;50.872;5.306;2023-06-14T00:55:21;4.05;;;2.75;;
27187;SDS011;14708;50.872;5.306;2023-06-14T00:57:47;5.68;;;3.05;;
27187;SDS011;14708;50.872;5.306;2023-06-14T01:00:14;4.97;;;3.30;;
27187;SDS011;14708;50.872;5.306;2023-06-14T01:02:40;4.75;;;3.10;;
27187;SDS011;14708;50.872;5.306;2023-06-14T01:05:06;4.75;;;2.90;;
27187;SDS011;14708;50.872;5.306;2023-06-14T01:12:44;3.72;;;3.05;;
27187;SDS011;14708;50.872;5.306;2023-06-14T01:15:30;6.03;;;3.25;;
27187;SDS011;14708;50.872;5.306;2023-06-14T01:17:56;3.13;;;2.70;;
27187;SDS011;14708;50.872;5.306;2023-06-14T01:20:29;3.40;;;2.70;;
27187;SDS011;14708;50.872;5.306;2023-06-14T01:22:57;2.50;;;2.30;;
27187;SDS011;14708;50.872;5.306;2023-06-14T01:25:23;3.13;;;2.83;;
27187;SDS011;14708;50.872;5.306;2023-06-14T01:27:50;3.40;;;3.10;;
27187;SDS011;14708;50.872;5.306;2023-06-14T01:30:27;3.00;;;2.65;;
27187;SDS011;14708;50.872;5.306;2023-06-14T01:32:55;4.20;;;3.22;;
27187;SDS011;14708;50.872;5.306;2023-06-14T01:35:22;3.30;;;2.72;;
27187;SDS011;14708;50.872;5.306;2023-06-14T01:37:48;3.53;;;2.75;;
27187;SDS011;14708;50.872;5.306;2023-06-14T01:40:15;5.25;;;2.50;;
27187;SDS011;14708;50.872;5.306;2023-06-14T01:42:42;3.78;;;2.92;;
27187;SDS011;14708;50.872;5.306;2023-06-14T01:45:11;4.55;;;3.17;;
27187;SDS011;14708;50.872;5.306;2023-06-14T01:47:36;3.22;;;2.85;;
27187;SDS011;14708;50.872;5.306;2023-06-14T01:50:03;2.88;;;2.38;;
27187;SDS011;14708;50.872;5.306;2023-06-14T01:52:29;3.42;;;2.63;;
27187;SDS011;14708;50.872;5.306;2023-06-14T01:54:54;3.03;;;2.72;;
27187;SDS011;14708;50.872;5.306;2023-06-14T01:57:20;3.88;;;2.95;;
27187;SDS011;14708;50.872;5.306;2023-06-14T01:59:47;3.22;;;2.92;;
27187;SDS011;14708;50.872;5.306;2023-06-14T02:02:13;4.18;;;2.63;;
27187;SDS011;14708;50.872;5.306;2023-06-14T02:04:40;4.03;;;3.20;;
27187;SDS011;14708;50.872;5.306;2023-06-14T02:07:06;4.75;;;3.50;;
27187;SDS011;14708;50.872;5.306;2023-06-14T02:09:31;3.38;;;3.03;;
27187;SDS011;14708;50.872;5.306;2023-06-14T02:11:57;5.13;;;3.33;;
27187;SDS011;14708;50.872;5.306;2023-06-14T02:14:23;5.85;;;3.17;;
27187;SDS011;14708;50.872;5.306;2023-06-14T02:16:49;3.58;;;3.28;;
27187;SDS011;14708;50.872;5.306;2023-06-14T02:19:18;3.92;;;3.42;;
27187;SDS011;14708;50.872;5.306;2023-06-14T02:21:45;5.15;;;3.63;;
27187;SDS011;14708;50.872;5.306;2023-06-14T02:24:11;4.30;;;3.72;;
27187;SDS011;14708;50.872;5.306;2023-06-14T02:26:37;5.97;;;4.28;;
27187;SDS011;14708;50.872;5.306;2023-06-14T02:29:03;4.32;;;3.88;;
27187;SDS011;14708;50.872;5.306;2023-06-14T02:31:30;5.53;;;3.83;;
27187;SDS011;14708;50.872;5.306;2023-06-14T02:33:56;6.70;;;3.78;;
27187;SDS011;14708;50.872;5.306;2023-06-14T02:36:22;3.97;;;3.53;;
27187;SDS011;14708;50.872;5.306;2023-06-14T02:38:48;5.07;;;3.88;;
27187;SDS011;14708;50.872;5.306;2023-06-14T02:41:13;4.43;;;3.35;;
27187;SDS011;14708;50.872;5.306;2023-06-14T02:43:39;6.18;;;4.32;;
27187;SDS011;14708;50.872;5.306;2023-06-14T02:46:05;4.93;;;3.95;;
27187;SDS011;14708;50.872;5.306;2023-06-14T02:48:31;4.32;;;3.92;;
27187;SDS011;14708;50.872;5.306;2023-06-14T02:50:56;5.05;;;4.32;;
27187;SDS011;14708;50.872;5.306;2023-06-14T02:53:22;4.90;;;3.78;;
27187;SDS011;14708;50.872;5.306;2023-06-14T02:55:48;5.82;;;3.95;;
27187;SDS011;14708;50.872;5.306;2023-06-14T02:58:14;5.55;;;3.80;;
27187;SDS011;14708;50.872;5.306;2023-06-14T03:00:41;4.60;;;3.70;;
27187;SDS011;14708;50.872;5.306;2023-06-14T03:03:07;6.28;;;4.45;;
27187;SDS011;14708;50.872;5.306;2023-06-14T03:05:43;5.85;;;4.50;;
27187;SDS011;14708;50.872;5.306;2023-06-14T03:08:14;5.65;;;4.47;;
27187;SDS011;14708;50.872;5.306;2023-06-14T03:10:45;7.32;;;4.50;;
27187;SDS011;14708;50.872;5.306;2023-06-14T03:13:11;6.10;;;4.40;;
27187;SDS011;14708;50.872;5.306;2023-06-14T03:15:37;4.78;;;4.20;;
27187;SDS011;14708;50.872;5.306;2023-06-14T03:18:03;7.65;;;4.60;;
27187;SDS011;14708;50.872;5.306;2023-06-14T03:20:29;6.57;;;4.57;;
27187;SDS011;14708;50.872;5.306;2023-06-14T03:22:59;7.57;;;4.60;;
27187;SDS011;14708;50.872;5.306;2023-06-14T03:25:25;6.20;;;4.63;;
27187;SDS011;14708;50.872;5.306;2023-06-14T03:27:54;5.22;;;3.97;;
27187;SDS011;14708;50.872;5.306;2023-06-14T03:30:20;7.07;;;4.75;;
27187;SDS011;14708;50.872;5.306;2023-06-14T03:32:46;5.10;;;4.60;;
27187;SDS011;14708;50.872;5.306;2023-06-14T03:35:11;8.75;;;4.47;;
27187;SDS011;14708;50.872;5.306;2023-06-14T03:37:42;5.55;;;4.28;;
27187;SDS011;14708;50.872;5.306;2023-06-14T03:40:08;6.88;;;4.97;;
27187;SDS011;14708;50.872;5.306;2023-06-14T03:42:34;7.95;;;4.75;;
27187;SDS011;14708;50.872;5.306;2023-06-14T03:45:00;6.40;;;4.97;;
27187;SDS011;14708;50.872;5.306;2023-06-14T03:47:25;6.60;;;4.68;;
27187;SDS011;14708;50.872;5.306;2023-06-14T03:49:52;7.13;;;4.85;;
27187;SDS011;14708;50.872;5.306;2023-06-14T03:52:17;6.00;;;4.70;;
27187;SDS011;14708;50.872;5.306;2023-06-14T03:54:43;6.22;;;4.93;;
27187;SDS011;14708;50.872;5.306;2023-06-14T03:57:09;5.55;;;4.90;;
27187;SDS011;14708;50.872;5.306;2023-06-14T03:59:35;7.20;;;4.57;;
27187;SDS011;14708;50.872;5.306;2023-06-14T04:02:01;8.98;;;4.75;;
27187;SDS011;14708;50.872;5.306;2023-06-14T04:04:27;5.03;;;4.53;;
27187;SDS011;14708;50.872;5.306;2023-06-14T04:06:54;4.93;;;4.30;;
27187;SDS011;14708;50.872;5.306;2023-06-14T04:09:21;7.78;;;4.63;;
27187;SDS011;14708;50.872;5.306;2023-06-14T04:11:49;5.38;;;4.85;;
27187;SDS011;14708;50.872;5.306;2023-06-14T04:14:16;8.68;;;4.65;;
27187;SDS011;14708;50.872;5.306;2023-06-14T04:16:43;7.35;;;5.68;;
27187;SDS011;14708;50.872;5.306;2023-06-14T04:19:08;5.15;;;4.65;;
27187;SDS011;14708;50.872;5.306;2023-06-14T04:21:34;6.22;;;4.72;;
27187;SDS011;14708;50.872;5.306;2023-06-14T04:23:59;6.20;;;5.03;;
27187;SDS011;14708;50.872;5.306;2023-06-14T04:26:27;7.72;;;4.90;;
27187;SDS011;14708;50.872;5.306;2023-06-14T04:28:54;7.13;;;4.95;;
27187;SDS011;14708;50.872;5.306;2023-06-14T04:31:26;7.63;;;5.00;;
27187;SDS011;14708;50.872;5.306;2023-06-14T04:33:58;5.43;;;4.47;;
27187;SDS011;14708;50.872;5.306;2023-06-14T04:36:24;7.30;;;5.07;;
27187;SDS011;14708;50.872;5.306;2023-06-14T04:38:52;5.68;;;4.55;;
27187;SDS011;14708;50.872;5.306;2023-06-14T04:41:20;7.38;;;4.95;;
27187;SDS011;14708;50.872;5.306;2023-06-14T04:43:48;9.48;;;5.45;;
27187;SDS011;14708;50.872;5.306;2023-06-14T04:46:14;13.60;;;4.93;;
27187;SDS011;14708;50.872;5.306;2023-06-14T04:48:40;5.43;;;4.80;;
27187;SDS011;14708;50.872;5.306;2023-06-14T04:51:08;8.23;;;4.95;;
27187;SDS011;14708;50.872;5.306;2023-06-14T04:53:34;7.38;;;4.95;;
27187;SDS011;14708;50.872;5.306;2023-06-14T04:56:00;5.05;;;4.55;;
27187;SDS011;14708;50.872;5.306;2023-06-14T04:58:26;7.28;;;4.60;;
27187;SDS011;14708;50.872;5.306;2023-06-14T05:00:53;6.43;;;5.10;;
27187;SDS011;14708;50.872;5.306;2023-06-14T05:03:21;7.15;;;5.30;;
27187;SDS011;14708;50.872;5.306;2023-06-14T05:05:48;8.80;;;5.18;;
27187;SDS011;14708;50.872;5.306;2023-06-14T05:08:15;7.82;;;5.53;;
27187;SDS011;14708;50.872;5.306;2023-06-14T05:10:41;7.22;;;5.13;;
27187;SDS011;14708;50.872;5.306;2023-06-14T05:13:07;6.80;;;4.72;;
27187;SDS011;14708;50.872;5.306;2023-06-14T05:15:32;6.40;;;5.20;;
27187;SDS011;14708;50.872;5.306;2023-06-14T05:17:59;7.78;;;4.90;;
27187;SDS011;14708;50.872;5.306;2023-06-14T05:20:24;8.68;;;4.80;;
27187;SDS011;14708;50.872;5.306;2023-06-14T05:22:52;7.40;;;4.82;;
27187;SDS011;14708;50.872;5.306;2023-06-14T05:25:21;9.27;;;5.38;;
27187;SDS011;14708;50.872;5.306;2023-06-14T05:27:47;10.05;;;5.20;;
27187;SDS011;14708;50.872;5.306;2023-06-14T05:30:14;8.60;;;4.90;;
27187;SDS011;14708;50.872;5.306;2023-06-14T05:32:40;6.40;;;5.05;;
27187;SDS011;14708;50.872;5.306;2023-06-14T05:35:06;10.38;;;5.30;;
27187;SDS011;14708;50.872;5.306;2023-06-14T05:37:32;8.73;;;5.25;;
27187;SDS011;14708;50.872;5.306;2023-06-14T05:39:58;7.72;;;5.22;;
27187;SDS011;14708;50.872;5.306;2023-06-14T05:42:23;10.18;;;5.20;;
27187;SDS011;14708;50.872;5.306;2023-06-14T05:44:49;7.95;;;5.00;;
27187;SDS011;14708;50.872;5.306;2023-06-14T05:47:14;6.38;;;5.18;;
27187;SDS011;14708;50.872;5.306;2023-06-14T05:49:40;7.28;;;5.35;;
27187;SDS011;14708;50.872;5.306;2023-06-14T05:52:06;14.20;;;5.47;;
27187;SDS011;14708;50.872;5.306;2023-06-14T05:54:32;7.25;;;5.15;;
27187;SDS011;14708;50.872;5.306;2023-06-14T05:56:58;8.20;;;5.05;;
27187;SDS011;14708;50.872;5.306;2023-06-14T05:59:27;7.23;;;4.77;;
27187;SDS011;14708;50.872;5.306;2023-06-14T06:01:53;6.43;;;5.45;;
27187;SDS011;14708;50.872;5.306;2023-06-14T06:04:18;5.80;;;4.43;;
27187;SDS011;14708;50.872;5.306;2023-06-14T06:06:45;7.30;;;5.00;;
27187;SDS011;14708;50.872;5.306;2023-06-14T06:09:11;13.00;;;5.90;;
27187;SDS011;14708;50.872;5.306;2023-06-14T06:11:39;10.85;;;4.93;;
27187;SDS011;14708;50.872;5.306;2023-06-14T06:14:05;12.63;;;5.03;;
27187;SDS011;14708;50.872;5.306;2023-06-14T06:16:30;10.60;;;5.80;;
27187;SDS011;14708;50.872;5.306;2023-06-14T06:18:56;11.85;;;5.65;;
27187;SDS011;14708;50.872;5.306;2023-06-14T06:21:21;8.23;;;5.25;;
27187;SDS011;14708;50.872;5.306;2023-06-14T06:23:47;10.10;;;5.50;;
27187;SDS011;14708;50.872;5.306;2023-06-14T06:26:13;7.43;;;5.63;;
27187;SDS011;14708;50.872;5.306;2023-06-14T06:28:38;7.13;;;5.20;;
27187;SDS011;14708;50.872;5.306;2023-06-14T06:31:04;8.77;;;6.25;;
27187;SDS011;14708;50.872;5.306;2023-06-14T06:33:30;9.88;;;5.30;;
27187;SDS011;14708;50.872;5.306;2023-06-14T06:35:56;11.15;;;5.32;;
27187;SDS011;14708;50.872;5.306;2023-06-14T06:38:21;9.07;;;5.47;;
27187;SDS011;14708;50.872;5.306;2023-06-14T06:40:47;10.48;;;5.72;;
27187;SDS011;14708;50.872;5.306;2023-06-14T06:43:13;9.77;;;5.38;;
27187;SDS011;14708;50.872;5.306;2023-06-14T06:45:39;10.45;;;5.50;;
27187;SDS011;14708;50.872;5.306;2023-06-14T06:48:05;10.40;;;4.80;;
27187;SDS011;14708;50.872;5.306;2023-06-14T06:50:31;10.93;;;6.05;;
27187;SDS011;14708;50.872;5.306;2023-06-14T06:52:56;11.68;;;5.97;;
27187;SDS011;14708;50.872;5.306;2023-06-14T06:55:22;11.88;;;6.07;;
27187;SDS011;14708;50.872;5.306;2023-06-14T06:57:48;10.07;;;5.65;;
27187;SDS011;14708;50.872;5.306;2023-06-14T07:00:15;12.63;;;5.60;;
27187;SDS011;14708;50.872;5.306;2023-06-14T07:02:41;14.98;;;5.30;;
27187;SDS011;14708;50.872;5.306;2023-06-14T07:05:07;11.73;;;5.57;;
27187;SDS011;14708;50.872;5.306;2023-06-14T07:07:33;11.40;;;5.55;;
27187;SDS011;14708;50.872;5.306;2023-06-14T07:09:59;14.50;;;5.68;;
27187;SDS011;14708;50.872;5.306;2023-06-14T07:12:25;12.82;;;6.10;;
27187;SDS011;14708;50.872;5.306;2023-06-14T07:14:51;8.15;;;4.90;;
27187;SDS011;14708;50.872;5.306;2023-06-14T07:17:16;11.45;;;5.18;;
27187;SDS011;14708;50.872;5.306;2023-06-14T07:19:42;9.35;;;5.10;;
27187;SDS011;14708;50.872;5.306;2023-06-14T07:22:07;12.57;;;5.65;;
27187;SDS011;14708;50.872;5.306;2023-06-14T07:24:33;9.48;;;5.22;;
27187;SDS011;14708;50.872;5.306;2023-06-14T07:27:01;7.72;;;5.22;;
27187;SDS011;14708;50.872;5.306;2023-06-14T07:29:28;15.07;;;5.50;;
27187;SDS011;14708;50.872;5.306;2023-06-14T07:31:53;9.23;;;5.13;;
27187;SDS011;14708;50.872;5.306;2023-06-14T07:34:19;11.40;;;5.60;;
27187;SDS011;14708;50.872;5.306;2023-06-14T07:36:45;9.63;;;5.22;;
27187;SDS011;14708;50.872;5.306;2023-06-14T07:39:11;10.45;;;5.10;;
27187;SDS011;14708;50.872;5.306;2023-06-14T07:41:37;8.93;;;4.97;;
27187;SDS011;14708;50.872;5.306;2023-06-14T07:44:02;8.30;;;5.30;;
27187;SDS011;14708;50.872;5.306;2023-06-14T07:46:28;8.07;;;5.13;;
27187;SDS011;14708;50.872;5.306;2023-06-14T07:48:54;12.95;;;6.00;;
27187;SDS011;14708;50.872;5.306;2023-06-14T07:51:19;28.23;;;7.85;;
27187;SDS011;14708;50.872;5.306;2023-06-14T07:53:47;23.98;;;7.78;;
27187;SDS011;14708;50.872;5.306;2023-06-14T07:56:13;24.02;;;7.78;;
27187;SDS011;14708;50.872;5.306;2023-06-14T07:58:39;24.77;;;7.10;;
27187;SDS011;14708;50.872;5.306;2023-06-14T08:01:05;23.88;;;7.90;;
27187;SDS011;14708;50.872;5.306;2023-06-14T08:03:32;13.93;;;6.70;;
27187;SDS011;14708;50.872;5.306;2023-06-14T08:05:59;23.13;;;7.25;;
27187;SDS011;14708;50.872;5.306;2023-06-14T08:08:25;22.58;;;7.30;;
27187;SDS011;14708;50.872;5.306;2023-06-14T08:10:51;17.35;;;6.22;;
27187;SDS011;14708;50.872;5.306;2023-06-14T08:13:17;16.48;;;5.95;;
27187;SDS011;14708;50.872;5.306;2023-06-14T08:15:43;16.90;;;7.25;;
27187;SDS011;14708;50.872;5.306;2023-06-14T08:18:09;16.13;;;5.85;;
27187;SDS011;14708;50.872;5.306;2023-06-14T08:20:35;17.13;;;7.28;;
27187;SDS011;14708;50.872;5.306;2023-06-14T08:23:02;10.85;;;4.95;;
27187;SDS011;14708;50.872;5.306;2023-06-14T08:25:29;14.02;;;5.32;;
27187;SDS011;14708;50.872;5.306;2023-06-14T08:27:55;13.43;;;5.75;;
27187;SDS011;14708;50.872;5.306;2023-06-14T08:30:21;17.30;;;6.43;;
27187;SDS011;14708;50.872;5.306;2023-06-14T08:32:47;12.32;;;5.60;;
27187;SDS011;14708;50.872;5.306;2023-06-14T08:35:13;11.00;;;5.72;;
27187;SDS011;14708;50.872;5.306;2023-06-14T08:37:42;14.40;;;5.90;;
27187;SDS011;14708;50.872;5.306;2023-06-14T08:42:44;12.40;;;6.00;;
27187;SDS011;14708;50.872;5.306;2023-06-14T08:45:13;13.98;;;5.68;;
27187;SDS011;14708;50.872;5.306;2023-06-14T08:47:38;11.65;;;5.20;;
27187;SDS011;14708;50.872;5.306;2023-06-14T08:50:05;8.25;;;4.82;;
27187;SDS011;14708;50.872;5.306;2023-06-14T08:52:33;12.38;;;6.15;;
27187;SDS011;14708;50.872;5.306;2023-06-14T08:55:10;8.40;;;4.75;;
27187;SDS011;14708;50.872;5.306;2023-06-14T08:57:37;8.65;;;4.97;;
27187;SDS011;14708;50.872;5.306;2023-06-14T09:00:05;9.95;;;4.65;;
27187;SDS011;14708;50.872;5.306;2023-06-14T09:02:37;9.02;;;4.80;;
27187;SDS011;14708;50.872;5.306;2023-06-14T09:05:03;10.75;;;5.22;;
27187;SDS011;14708;50.872;5.306;2023-06-14T09:07:29;10.18;;;4.95;;
27187;SDS011;14708;50.872;5.306;2023-06-14T09:10:05;9.07;;;5.05;;
27187;SDS011;14708;50.872;5.306;2023-06-14T09:12:36;9.82;;;5.10;;
27187;SDS011;14708;50.872;5.306;2023-06-14T09:15:03;8.50;;;4.75;;
27187;SDS011;14708;50.872;5.306;2023-06-14T09:17:40;10.50;;;4.87;;
27187;SDS011;14708;50.872;5.306;2023-06-14T09:20:08;10.85;;;4.95;;
27187;SDS011;14708;50.872;5.306;2023-06-14T09:22:43;6.72;;;4.72;;
27187;SDS011;14708;50.872;5.306;2023-06-14T09:25:09;6.28;;;4.65;;
27187;SDS011;14708;50.872;5.306;2023-06-14T09:27:37;11.35;;;4.78;;
27187;SDS011;14708;50.872;5.306;2023-06-14T09:30:05;9.40;;;5.13;;
27187;SDS011;14708;50.872;5.306;2023-06-14T09:32:36;7.75;;;4.78;;
27187;SDS011;14708;50.872;5.306;2023-06-14T09:35:03;10.20;;;5.47;;
27187;SDS011;14708;50.872;5.306;2023-06-14T09:37:31;11.57;;;5.32;;
27187;SDS011;14708;50.872;5.306;2023-06-14T09:39:57;9.05;;;4.68;;
27187;SDS011;14708;50.872;5.306;2023-06-14T09:42:24;8.00;;;4.70;;
27187;SDS011;14708;50.872;5.306;2023-06-14T09:44:50;19.55;;;5.53;;
27187;SDS011;14708;50.872;5.306;2023-06-14T09:47:18;9.13;;;5.15;;
27187;SDS011;14708;50.872;5.306;2023-06-14T09:49:45;9.18;;;4.68;;
27187;SDS011;14708;50.872;5.306;2023-06-14T09:52:13;10.15;;;5.18;;
27187;SDS011;14708;50.872;5.306;2023-06-14T09:54:41;8.90;;;4.93;;
27187;SDS011;14708;50.872;5.306;2023-06-14T09:57:11;8.98;;;4.95;;
27187;SDS011;14708;50.872;5.306;2023-06-14T09:59:39;9.57;;;4.45;;
27187;SDS011;14708;50.872;5.306;2023-06-14T10:02:12;6.72;;;4.90;;
27187;SDS011;14708;50.872;5.306;2023-06-14T10:05:05;13.27;;;4.50;;
27187;SDS011;14708;50.872;5.306;2023-06-14T10:10:05;7.60;;;4.90;;
27187;SDS011;14708;50.872;5.306;2023-06-14T10:12:32;9.10;;;4.88;;
27187;SDS011;14708;50.872;5.306;2023-06-14T10:14:58;7.35;;;4.35;;
27187;SDS011;14708;50.872;5.306;2023-06-14T10:23:10;9.63;;;4.88;;
27187;SDS011;14708;50.872;5.306;2023-06-14T10:25:44;9.98;;;5.13;;
27187;SDS011;14708;50.872;5.306;2023-06-14T10:28:18;10.13;;;5.07;;
27187;SDS011;14708;50.872;5.306;2023-06-14T10:31:03;7.03;;;4.82;;
27187;SDS011;14708;50.872;5.306;2023-06-14T10:33:34;6.07;;;4.03;;
27187;SDS011;14708;50.872;5.306;2023-06-14T10:36:10;10.70;;;4.75;;
27187;SDS011;14708;50.872;5.306;2023-06-14T10:38:45;6.57;;;4.57;;
27187;SDS011;14708;50.872;5.306;2023-06-14T10:41:11;9.70;;;4.78;;
27187;SDS011;14708;50.872;5.306;2023-06-14T10:43:37;5.68;;;4.03;;
27187;SDS011;14708;50.872;5.306;2023-06-14T10:46:20;7.50;;;4.13;;
27187;SDS011;14708;50.872;5.306;2023-06-14T10:48:56;7.55;;;4.30;;
27187;SDS011;14708;50.872;5.306;2023-06-14T10:51:22;9.07;;;4.35;;
27187;SDS011;14708;50.872;5.306;2023-06-14T10:53:48;6.40;;;3.97;;
27187;SDS011;14708;50.872;5.306;2023-06-14T10:56:28;6.57;;;4.35;;
27187;SDS011;14708;50.872;5.306;2023-06-14T10:58:56;6.85;;;4.13;;
27187;SDS011;14708;50.872;5.306;2023-06-14T11:01:28;6.22;;;3.85;;
27187;SDS011;14708;50.872;5.306;2023-06-14T11:04:10;4.47;;;3.70;;
27187;SDS011;14708;50.872;5.306;2023-06-14T11:06:54;6.70;;;4.15;;
27187;SDS011;14708;50.872;5.306;2023-06-14T11:09:48;7.47;;;4.07;;
27187;SDS011;14708;50.872;5.306;2023-06-14T11:12:34;8.07;;;4.50;;
27187;SDS011;14708;50.872;5.306;2023-06-14T11:15:01;7.20;;;4.07;;
27187;SDS011;14708;50.872;5.306;2023-06-14T11:17:27;7.90;;;4.20;;
27187;SDS011;14708;50.872;5.306;2023-06-14T11:20:07;7.00;;;4.07;;
27187;SDS011;14708;50.872;5.306;2023-06-14T11:22:43;6.55;;;3.75;;
27187;SDS011;14708;50.872;5.306;2023-06-14T11:25:10;7.43;;;3.90;;
27187;SDS011;14708;50.872;5.306;2023-06-14T11:27:37;8.60;;;4.38;;
27187;SDS011;14708;50.872;5.306;2023-06-14T11:30:03;8.25;;;4.10;;
27187;SDS011;14708;50.872;5.306;2023-06-14T11:32:32;4.97;;;4.10;;
27187;SDS011;14708;50.872;5.306;2023-06-14T11:34:57;12.23;;;3.70;;
27187;SDS011;14708;50.872;5.306;2023-06-14T11:37:25;6.85;;;4.43;;
27187;SDS011;14708;50.872;5.306;2023-06-14T11:39:55;8.93;;;4.28;;
27187;SDS011;14708;50.872;5.306;2023-06-14T11:42:22;5.68;;;4.10;;
27187;SDS011;14708;50.872;5.306;2023-06-14T11:44:49;6.60;;;4.07;;
27187;SDS011;14708;50.872;5.306;2023-06-14T11:47:15;6.68;;;3.90;;
27187;SDS011;14708;50.872;5.306;2023-06-14T11:49:41;8.07;;;4.43;;
27187;SDS011;14708;50.872;5.306;2023-06-14T11:52:07;7.78;;;4.72;;
27187;SDS011;14708;50.872;5.306;2023-06-14T11:54:32;7.05;;;4.13;;
27187;SDS011;14708;50.872;5.306;2023-06-14T11:56:58;7.03;;;3.83;;
27187;SDS011;14708;50.872;5.306;2023-06-14T11:59:24;6.30;;;4.32;;
27187;SDS011;14708;50.872;5.306;2023-06-14T12:01:50;6.82;;;4.28;;
27187;SDS011;14708;50.872;5.306;2023-06-14T12:04:28;6.65;;;3.63;;
27187;SDS011;14708;50.872;5.306;2023-06-14T12:06:55;5.00;;;3.83;;
27187;SDS011;14708;50.872;5.306;2023-06-14T12:09:22;8.98;;;4.28;;
27187;SDS011;14708;50.872;5.306;2023-06-14T12:11:50;9.63;;;4.13;;
27187;SDS011;14708;50.872;5.306;2023-06-14T12:14:28;6.93;;;4.05;;
27187;SDS011;14708;50.872;5.306;2023-06-14T12:17:03;8.73;;;3.90;;
27187;SDS011;14708;50.872;5.306;2023-06-14T12:19:33;3.92;;;3.22;;
27187;SDS011;14708;50.872;5.306;2023-06-14T12:22:07;9.80;;;3.58;;
27187;SDS011;14708;50.872;5.306;2023-06-14T12:24:38;6.40;;;3.28;;
27187;SDS011;14708;50.872;5.306;2023-06-14T12:27:04;8.50;;;3.85;;
27187;SDS011;14708;50.872;5.306;2023-06-14T12:29:31;5.15;;;3.95;;
27187;SDS011;14708;50.872;5.306;2023-06-14T12:31:57;5.55;;;3.55;;
27187;SDS011;14708;50.872;5.306;2023-06-14T12:34:23;6.10;;;3.80;;
27187;SDS011;14708;50.872;5.306;2023-06-14T12:36:50;9.13;;;3.97;;
27187;SDS011;14708;50.872;5.306;2023-06-14T12:39:16;7.50;;;3.80;;
27187;SDS011;14708;50.872;5.306;2023-06-14T12:41:41;6.03;;;3.47;;
27187;SDS011;14708;50.872;5.306;2023-06-14T12:44:07;7.00;;;3.40;;
27187;SDS011;14708;50.872;5.306;2023-06-14T12:46:33;8.23;;;3.50;;
27187;SDS011;14708;50.872;5.306;2023-06-14T12:49:00;6.60;;;3.10;;
27187;SDS011;14708;50.872;5.306;2023-06-14T12:51:26;4.10;;;3.00;;
27187;SDS011;14708;50.872;5.306;2023-06-14T12:53:51;6.57;;;3.40;;
27187;SDS011;14708;50.872;5.306;2023-06-14T12:56:17;5.10;;;3.65;;
27187;SDS011;14708;50.872;5.306;2023-06-14T12:58:43;6.57;;;3.38;;
27187;SDS011;14708;50.872;5.306;2023-06-14T13:01:08;8.50;;;3.67;;
27187;SDS011;14708;50.872;5.306;2023-06-14T13:03:34;9.10;;;3.30;;
27187;SDS011;14708;50.872;5.306;2023-06-14T13:06:00;6.00;;;3.60;;
27187;SDS011;14708;50.872;5.306;2023-06-14T13:08:27;8.40;;;3.38;;
27187;SDS011;14708;50.872;5.306;2023-06-14T13:10:53;4.28;;;3.05;;
27187;SDS011;14708;50.872;5.306;2023-06-14T13:13:19;6.70;;;3.50;;
27187;SDS011;14708;50.872;5.306;2023-06-14T13:15:45;5.13;;;3.60;;
27187;SDS011;14708;50.872;5.306;2023-06-14T13:18:11;5.82;;;3.13;;
27187;SDS011;14708;50.872;5.306;2023-06-14T13:20:38;19.02;;;7.25;;
27187;SDS011;14708;50.872;5.306;2023-06-14T13:23:04;31.50;;;8.80;;
27187;SDS011;14708;50.872;5.306;2023-06-14T13:25:32;27.05;;;8.55;;
27187;SDS011;14708;50.872;5.306;2023-06-14T13:27:59;28.30;;;9.35;;
27187;SDS011;14708;50.872;5.306;2023-06-14T13:30:24;23.75;;;7.60;;
27187;SDS011;14708;50.872;5.306;2023-06-14T13:32:50;23.63;;;7.47;;
27187;SDS011;14708;50.872;5.306;2023-06-14T13:35:17;17.73;;;7.05;;
27187;SDS011;14708;50.872;5.306;2023-06-14T13:37:43;23.83;;;7.72;;
27187;SDS011;14708;50.872;5.306;2023-06-14T13:40:09;17.88;;;6.05;;
27187;SDS011;14708;50.872;5.306;2023-06-14T13:42:35;16.77;;;6.15;;
27187;SDS011;14708;50.872;5.306;2023-06-14T13:45:02;14.38;;;5.85;;
27187;SDS011;14708;50.872;5.306;2023-06-14T13:47:28;12.45;;;4.90;;
27187;SDS011;14708;50.872;5.306;2023-06-14T13:49:55;12.82;;;5.50;;
27187;SDS011;14708;50.872;5.306;2023-06-14T13:52:20;11.82;;;4.72;;
27187;SDS011;14708;50.872;5.306;2023-06-14T13:54:46;12.90;;;5.25;;
27187;SDS011;14708;50.872;5.306;2023-06-14T13:57:12;12.43;;;5.25;;
27187;SDS011;14708;50.872;5.306;2023-06-14T13:59:38;16.10;;;5.35;;
27187;SDS011;14708;50.872;5.306;2023-06-14T14:02:05;13.10;;;4.97;;
27187;SDS011;14708;50.872;5.306;2023-06-14T14:04:31;14.00;;;4.93;;
27187;SDS011;14708;50.872;5.306;2023-06-14T14:06:56;10.52;;;5.18;;
27187;SDS011;14708;50.872;5.306;2023-06-14T14:09:22;9.20;;;4.47;;
27187;SDS011;14708;50.872;5.306;2023-06-14T14:11:48;13.05;;;4.85;;
27187;SDS011;14708;50.872;5.306;2023-06-14T14:14:14;9.85;;;4.45;;
27187;SDS011;14708;50.872;5.306;2023-06-14T14:16:40;10.60;;;4.65;;
27187;SDS011;14708;50.872;5.306;2023-06-14T14:19:06;14.60;;;5.32;;
27187;SDS011;14708;50.872;5.306;2023-06-14T14:21:32;14.82;;;4.93;;
27187;SDS011;14708;50.872;5.306;2023-06-14T14:23:58;9.60;;;4.25;;
27187;SDS011;14708;50.872;5.306;2023-06-14T14:26:24;12.52;;;4.25;;
27187;SDS011;14708;50.872;5.306;2023-06-14T14:28:50;10.95;;;4.60;;
27187;SDS011;14708;50.872;5.306;2023-06-14T14:31:16;9.30;;;3.80;;
27187;SDS011;14708;50.872;5.306;2023-06-14T14:33:42;8.23;;;3.78;;
27187;SDS011;14708;50.872;5.306;2023-06-14T14:36:08;11.18;;;3.75;;
27187;SDS011;14708;50.872;5.306;2023-06-14T14:38:34;21.67;;;7.10;;
27187;SDS011;14708;50.872;5.306;2023-06-14T14:41:00;12.65;;;4.70;;
27187;SDS011;14708;50.872;5.306;2023-06-14T14:43:25;15.88;;;5.82;;
27187;SDS011;14708;50.872;5.306;2023-06-14T14:45:51;16.88;;;5.55;;
27187;SDS011;14708;50.872;5.306;2023-06-14T14:48:17;18.92;;;6.43;;
27187;SDS011;14708;50.872;5.306;2023-06-14T14:50:43;22.33;;;6.93;;
27187;SDS011;14708;50.872;5.306;2023-06-14T14:53:08;13.75;;;5.95;;
27187;SDS011;14708;50.872;5.306;2023-06-14T14:55:34;17.20;;;6.03;;
27187;SDS011;14708;50.872;5.306;2023-06-14T14:58:02;17.35;;;5.80;;
27187;SDS011;14708;50.872;5.306;2023-06-14T15:00:28;12.77;;;5.60;;